createdAt,value
2017-04-29T00:00:25.209Z,0
2017-04-29T00:01:38.634Z,0
2017-04-29T00:02:52.739Z,0
2017-04-29T00:04:06.451Z,0
2017-04-29T00:05:19.757Z,0
2017-04-29T00:06:33.464Z,0
2017-04-29T00:07:47.580Z,0
2017-04-29T00:09:01.451Z,0
2017-04-29T00:10:15.420Z,0
2017-04-29T00:11:28.879Z,0
2017-04-29T00:12:42.904Z,0
2017-04-29T00:13:55.693Z,0
2017-04-29T00:15:09.027Z,0
2017-04-29T00:16:22.328Z,0
2017-04-29T00:17:35.400Z,0
2017-04-29T00:18:47.961Z,0
2017-04-29T00:20:01.681Z,0
2017-04-29T00:21:14.831Z,0
2017-04-29T00:22:27.811Z,0
2017-04-29T00:23:41.630Z,0
2017-04-29T00:24:55.226Z,0
2017-04-29T00:26:09.286Z,0
2017-04-29T00:27:22.865Z,0
2017-04-29T00:28:36.794Z,0
2017-04-29T00:29:49.608Z,0
2017-04-29T00:31:03.191Z,0
2017-04-29T00:32:17.478Z,0
2017-04-29T00:33:31.059Z,0
2017-04-29T00:34:45.435Z,0
2017-04-29T00:35:58.846Z,0
2017-04-29T00:37:12.709Z,0
2017-04-29T00:38:25.758Z,0
2017-04-29T00:39:39.173Z,0
2017-04-29T00:40:52.771Z,0
2017-04-29T00:42:06.542Z,0
2017-04-29T00:43:19.768Z,0
2017-04-29T00:44:33.154Z,0
2017-04-29T00:45:46.695Z,0
2017-04-29T00:47:01.251Z,0
2017-04-29T00:48:15.514Z,0
2017-04-29T00:49:29.413Z,0
2017-04-29T00:50:43.235Z,0
2017-04-29T00:51:57.683Z,0
2017-04-29T00:53:11.401Z,0
2017-04-29T00:54:24.854Z,0
2017-04-29T00:55:38.227Z,0
2017-04-29T00:56:51.465Z,0
2017-04-29T00:58:04.589Z,0
2017-04-29T00:59:17.356Z,0
2017-04-29T01:00:30.457Z,0
2017-04-29T01:01:43.930Z,0
2017-04-29T01:02:57.639Z,0
2017-04-29T01:04:11.229Z,0
2017-04-29T01:05:22.813Z,0
2017-04-29T01:06:33.382Z,0
2017-04-29T01:07:44.774Z,0
2017-04-29T01:08:56.043Z,0
2017-04-29T01:10:08.845Z,0
2017-04-29T01:11:21.122Z,0
2017-04-29T01:12:30.859Z,0
2017-04-29T01:13:42.371Z,0
2017-04-29T01:14:54.972Z,0
2017-04-29T01:16:06.296Z,0
2017-04-29T01:17:17.477Z,0
2017-04-29T01:18:29.029Z,0
2017-04-29T01:19:40.713Z,0
2017-04-29T01:20:51.953Z,0
2017-04-29T01:22:05.108Z,0
2017-04-29T01:23:16.015Z,0
2017-04-29T01:24:26.032Z,0
2017-04-29T01:25:38.060Z,0
2017-04-29T01:26:48.356Z,0
2017-04-29T01:28:01.013Z,0
2017-04-29T01:29:11.914Z,0
2017-04-29T01:30:22.180Z,0
2017-04-29T01:31:32.213Z,0
2017-04-29T01:32:42.736Z,0
2017-04-29T01:33:52.868Z,0
2017-04-29T01:35:03.677Z,0
2017-04-29T01:36:14.430Z,0
2017-04-29T01:37:24.064Z,0
2017-04-29T01:38:33.910Z,0
2017-04-29T01:39:45.203Z,0
2017-04-29T01:40:55.216Z,0
2017-04-29T01:42:05.379Z,0
2017-04-29T01:43:16.481Z,0
2017-04-29T01:44:26.806Z,0
2017-04-29T01:45:37.445Z,0
2017-04-29T01:46:47.668Z,0
2017-04-29T01:47:57.187Z,0
2017-04-29T01:49:08.865Z,0
2017-04-29T01:50:19.166Z,0
2017-04-29T01:51:29.554Z,0
2017-04-29T01:52:40.369Z,0
2017-04-29T01:53:51.650Z,0
2017-04-29T01:55:02.267Z,0
2017-04-29T01:56:13.095Z,0
2017-04-29T01:57:23.232Z,0
2017-04-29T01:58:33.331Z,0
2017-04-29T01:59:44.180Z,0
2017-04-29T02:00:54.835Z,0
2017-04-29T02:02:04.698Z,0
2017-04-29T02:03:15.445Z,0
2017-04-29T02:04:25.621Z,0
2017-04-29T02:05:35.541Z,0
2017-04-29T02:06:45.836Z,0
2017-04-29T02:07:55.860Z,0
2017-04-29T02:09:05.289Z,0
2017-04-29T02:10:15.865Z,0
2017-04-29T02:11:25.637Z,0
2017-04-29T02:12:35.548Z,0
2017-04-29T02:13:45.148Z,0
2017-04-29T02:14:56.006Z,0
2017-04-29T02:16:06.514Z,0
2017-04-29T02:17:16.660Z,0
2017-04-29T02:18:26.734Z,0
2017-04-29T02:19:36.691Z,0
2017-04-29T02:20:47.567Z,0
2017-04-29T02:21:57.996Z,0
2017-04-29T02:23:08.285Z,0
2017-04-29T02:24:18.129Z,0
2017-04-29T02:25:28.378Z,0
2017-04-29T02:26:38.605Z,0
2017-04-29T02:27:49.576Z,0
2017-04-29T02:29:00.183Z,0
2017-04-29T02:30:10.792Z,0
2017-04-29T02:31:21.334Z,0
2017-04-29T02:32:31.823Z,0
2017-04-29T02:33:41.609Z,0
2017-04-29T02:34:51.656Z,0
2017-04-29T02:36:02.519Z,0
2017-04-29T02:37:11.730Z,0
2017-04-29T02:38:21.878Z,0
2017-04-29T02:39:31.124Z,0
2017-04-29T02:40:40.342Z,0
2017-04-29T02:41:49.599Z,0
2017-04-29T02:42:59.140Z,0
2017-04-29T02:44:08.030Z,0
2017-04-29T02:45:17.239Z,0
2017-04-29T02:46:26.126Z,0
2017-04-29T02:47:35.066Z,0
2017-04-29T02:48:44.605Z,0
2017-04-29T02:49:53.491Z,0
2017-04-29T02:51:02.706Z,0
2017-04-29T02:52:12.250Z,0
2017-04-29T02:53:21.463Z,0
2017-04-29T02:54:30.682Z,0
2017-04-29T02:55:39.901Z,0
2017-04-29T02:56:49.433Z,0
2017-04-29T02:57:58.974Z,0
2017-04-29T02:59:08.668Z,0
2017-04-29T03:00:17.564Z,0
2017-04-29T03:01:26.777Z,0
2017-04-29T03:02:36.318Z,0
2017-04-29T03:03:46.184Z,0
2017-04-29T03:04:55.549Z,0
2017-04-29T03:06:04.431Z,0
2017-04-29T03:07:13.652Z,0
2017-04-29T03:08:23.815Z,0
2017-04-29T03:09:33.730Z,0
2017-04-29T03:10:43.091Z,0
2017-04-29T03:11:52.302Z,0
2017-04-29T03:13:01.840Z,0
2017-04-29T03:14:11.056Z,0
2017-04-29T03:15:19.940Z,0
2017-04-29T03:16:29.081Z,0
2017-04-29T03:17:37.973Z,0
2017-04-29T03:18:47.508Z,0
2017-04-29T03:19:56.405Z,0
2017-04-29T03:21:05.615Z,0
2017-04-29T03:22:14.872Z,0
2017-04-29T03:23:23.766Z,0
2017-04-29T03:24:32.979Z,0
2017-04-29T03:25:42.569Z,0
2017-04-29T03:26:51.783Z,0
2017-04-29T03:28:00.995Z,0
2017-04-29T03:29:09.885Z,0
2017-04-29T03:30:19.093Z,0
2017-04-29T03:31:27.976Z,0
2017-04-29T03:32:37.197Z,0
2017-04-29T03:33:46.802Z,0
2017-04-29T03:34:56.345Z,0
2017-04-29T03:36:05.876Z,0
2017-04-29T03:37:15.965Z,0
2017-04-29T03:38:25.503Z,0
2017-04-29T03:39:34.763Z,0
2017-04-29T03:40:43.971Z,0
2017-04-29T03:41:53.175Z,0
2017-04-29T03:43:02.386Z,0
2017-04-29T03:44:11.602Z,0
2017-04-29T03:45:20.642Z,0
2017-04-29T03:46:29.527Z,0
2017-04-29T03:47:39.390Z,0
2017-04-29T03:48:49.263Z,5
2017-04-29T03:49:58.799Z,5
2017-04-29T03:51:08.487Z,5
2017-04-29T03:52:17.378Z,5
2017-04-29T03:53:26.604Z,5
2017-04-29T03:54:35.817Z,5
2017-04-29T03:55:45.354Z,10
2017-04-29T03:56:54.860Z,10
2017-04-29T03:58:04.731Z,10
2017-04-29T03:59:13.942Z,10
2017-04-29T04:00:23.476Z,10
2017-04-29T04:01:32.683Z,15
2017-04-29T04:02:41.835Z,15
2017-04-29T04:03:51.374Z,15
2017-04-29T04:05:00.268Z,15
2017-04-29T04:06:09.160Z,20
2017-04-29T04:07:18.367Z,20
2017-04-29T04:08:27.922Z,20
2017-04-29T04:09:37.459Z,25
2017-04-29T04:10:46.672Z,25
2017-04-29T04:11:55.882Z,25
2017-04-29T04:13:05.096Z,30
2017-04-29T04:14:14.787Z,30
2017-04-29T04:15:23.998Z,30
2017-04-29T04:16:33.209Z,35
2017-04-29T04:17:43.073Z,35
2017-04-29T04:18:51.959Z,35
2017-04-29T04:20:01.228Z,40
2017-04-29T04:21:11.114Z,40
2017-04-29T04:22:20.323Z,40
2017-04-29T04:23:29.711Z,45
2017-04-29T04:24:38.922Z,45
2017-04-29T04:25:47.967Z,50
2017-04-29T04:26:56.851Z,50
2017-04-29T04:28:06.064Z,55
2017-04-29T04:29:14.949Z,55
2017-04-29T04:30:23.828Z,55
2017-04-29T04:31:33.036Z,60
2017-04-29T04:32:42.569Z,60
2017-04-29T04:33:52.104Z,65
2017-04-29T04:35:01.323Z,65
2017-04-29T04:36:10.534Z,65
2017-04-29T04:37:19.742Z,70
2017-04-29T04:38:28.628Z,70
2017-04-29T04:39:37.839Z,70
2017-04-29T04:40:47.047Z,70
2017-04-29T04:41:55.931Z,70
2017-04-29T04:43:05.140Z,75
2017-04-29T04:44:14.688Z,75
2017-04-29T04:45:24.222Z,80
2017-04-29T04:46:33.754Z,90
2017-04-29T04:47:43.294Z,90
2017-04-29T04:48:52.705Z,90
2017-04-29T04:50:01.920Z,90
2017-04-29T04:51:11.789Z,95
2017-04-29T04:52:20.999Z,95
2017-04-29T04:53:30.541Z,95
2017-04-29T04:54:40.599Z,95
2017-04-29T04:55:49.484Z,95
2017-04-29T04:56:58.374Z,95
2017-04-29T04:58:07.910Z,95
2017-04-29T04:59:17.448Z,100
2017-04-29T05:00:26.542Z,100
2017-04-29T05:01:35.755Z,95
2017-04-29T05:02:45.314Z,95
2017-04-29T05:03:54.849Z,95
2017-04-29T05:05:04.712Z,100
2017-04-29T05:06:13.974Z,110
2017-04-29T05:07:23.838Z,110
2017-04-29T05:08:33.411Z,115
2017-04-29T05:09:42.627Z,120
2017-04-29T05:10:51.513Z,120
2017-04-29T05:12:00.553Z,120
2017-04-29T05:13:10.092Z,120
2017-04-29T05:14:19.660Z,125
2017-04-29T05:15:28.877Z,130
2017-04-29T05:16:38.093Z,135
2017-04-29T05:17:47.506Z,135
2017-04-29T05:18:56.727Z,135
2017-04-29T05:20:06.268Z,130
2017-04-29T05:21:15.483Z,125
2017-04-29T05:22:24.366Z,125
2017-04-29T05:23:33.624Z,130
2017-04-29T05:24:42.835Z,125
2017-04-29T05:25:51.721Z,125
2017-04-29T05:27:01.250Z,130
2017-04-29T05:28:10.790Z,130
2017-04-29T05:29:21.127Z,130
2017-04-29T05:30:30.664Z,125
2017-04-29T05:31:39.870Z,125
2017-04-29T05:32:49.093Z,125
2017-04-29T05:33:59.014Z,125
2017-04-29T05:35:08.275Z,130
2017-04-29T05:36:17.482Z,130
2017-04-29T05:37:26.366Z,130
2017-04-29T05:38:35.903Z,130
2017-04-29T05:39:45.115Z,130
2017-04-29T05:40:54.400Z,135
2017-04-29T05:42:03.615Z,135
2017-04-29T05:43:13.155Z,140
2017-04-29T05:44:22.692Z,145
2017-04-29T05:45:32.234Z,150
2017-04-29T05:46:41.694Z,160
2017-04-29T05:47:51.240Z,160
2017-04-29T05:49:00.774Z,165
2017-04-29T05:50:09.660Z,165
2017-04-29T05:51:19.518Z,170
2017-04-29T05:52:28.502Z,175
2017-04-29T05:53:37.427Z,185
2017-04-29T05:54:46.964Z,190
2017-04-29T05:55:56.180Z,190
2017-04-29T05:57:05.071Z,190
2017-04-29T05:58:15.259Z,190
2017-04-29T05:59:24.471Z,195
2017-04-29T06:00:33.365Z,195
2017-04-29T06:01:42.256Z,195
2017-04-29T06:02:51.796Z,195
2017-04-29T06:04:01.335Z,195
2017-04-29T06:05:10.546Z,200
2017-04-29T06:06:19.431Z,200
2017-04-29T06:07:28.647Z,200
2017-04-29T06:08:37.864Z,195
2017-04-29T06:09:47.727Z,200
2017-04-29T06:10:56.610Z,205
2017-04-29T06:12:05.821Z,210
2017-04-29T06:13:14.707Z,215
2017-04-29T06:14:24.571Z,215
2017-04-29T06:15:33.789Z,220
2017-04-29T06:16:42.997Z,235
2017-04-29T06:17:52.733Z,235
2017-04-29T06:19:02.272Z,230
2017-04-29T06:20:11.488Z,230
2017-04-29T06:21:20.700Z,235
2017-04-29T06:22:29.590Z,240
2017-04-29T06:23:39.183Z,240
2017-04-29T06:24:48.074Z,245
2017-04-29T06:25:57.289Z,245
2017-04-29T06:27:06.174Z,260
2017-04-29T06:28:15.405Z,260
2017-04-29T06:29:24.940Z,260
2017-04-29T06:30:34.151Z,265
2017-04-29T06:31:43.038Z,260
2017-04-29T06:32:52.252Z,270
2017-04-29T06:34:01.470Z,270
2017-04-29T06:35:10.515Z,260
2017-04-29T06:36:19.816Z,255
2017-04-29T06:37:28.718Z,250
2017-04-29T06:38:38.579Z,250
2017-04-29T06:39:47.512Z,260
2017-04-29T06:40:56.418Z,265
2017-04-29T06:42:05.644Z,270
2017-04-29T06:43:15.332Z,270
2017-04-29T06:44:25.008Z,270
2017-04-29T06:45:34.595Z,285
2017-04-29T06:46:43.808Z,295
2017-04-29T06:47:53.350Z,290
2017-04-29T06:49:03.211Z,295
2017-04-29T06:50:12.427Z,295
2017-04-29T06:51:21.613Z,300
2017-04-29T06:52:30.497Z,300
2017-04-29T06:53:39.718Z,300
2017-04-29T06:54:49.256Z,310
2017-04-29T06:55:58.475Z,310
2017-04-29T06:57:08.262Z,315
2017-04-29T06:58:17.148Z,320
2017-04-29T06:59:26.067Z,325
2017-04-29T07:00:34.982Z,330
2017-04-29T07:01:43.868Z,335
2017-04-29T07:02:52.810Z,330
2017-04-29T07:04:02.683Z,335
2017-04-29T07:05:11.905Z,330
2017-04-29T07:06:20.804Z,330
2017-04-29T07:07:29.694Z,330
2017-04-29T07:08:38.958Z,330
2017-04-29T07:09:47.846Z,330
2017-04-29T07:10:57.063Z,325
2017-04-29T07:12:06.934Z,320
2017-04-29T07:13:16.474Z,310
2017-04-29T07:14:25.891Z,300
2017-04-29T07:15:35.423Z,295
2017-04-29T07:16:44.641Z,290
2017-04-29T07:17:54.190Z,285
2017-04-29T07:19:04.059Z,290
2017-04-29T07:20:13.320Z,305
2017-04-29T07:21:22.856Z,310
2017-04-29T07:22:31.743Z,330
2017-04-29T07:23:41.284Z,335
2017-04-29T07:24:50.217Z,335
2017-04-29T07:25:59.583Z,345
2017-04-29T07:27:09.128Z,355
2017-04-29T07:28:18.024Z,355
2017-04-29T07:29:26.920Z,345
2017-04-29T07:30:36.148Z,335
2017-04-29T07:31:45.510Z,325
2017-04-29T07:32:54.734Z,330
2017-04-29T07:34:04.280Z,330
2017-04-29T07:35:13.178Z,325
2017-04-29T07:36:22.390Z,320
2017-04-29T07:37:31.617Z,305
2017-04-29T07:38:41.163Z,295
2017-04-29T07:39:50.052Z,315
2017-04-29T07:40:59.270Z,330
2017-04-29T07:42:08.160Z,345
2017-04-29T07:43:17.074Z,350
2017-04-29T07:44:25.972Z,330
2017-04-29T07:45:35.511Z,310
2017-04-29T07:46:44.723Z,290
2017-04-29T07:47:54.265Z,295
2017-04-29T07:49:03.813Z,270
2017-04-29T07:50:13.030Z,265
2017-04-29T07:51:21.923Z,255
2017-04-29T07:52:30.823Z,255
2017-04-29T07:53:40.374Z,260
2017-04-29T07:54:49.265Z,295
2017-04-29T07:55:58.482Z,305
2017-04-29T07:57:07.373Z,325
2017-04-29T07:58:16.913Z,365
2017-04-29T07:59:26.451Z,395
2017-04-29T08:00:35.345Z,430
2017-04-29T08:01:44.883Z,470
2017-04-29T08:02:54.907Z,480
2017-04-29T08:04:04.447Z,485
2017-04-29T08:05:13.980Z,495
2017-04-29T08:06:22.872Z,500
2017-04-29T08:07:31.769Z,475
2017-04-29T08:08:40.987Z,440
2017-04-29T08:09:50.202Z,410
2017-04-29T08:10:59.413Z,380
2017-04-29T08:12:08.622Z,380
2017-04-29T08:13:17.836Z,375
2017-04-29T08:14:27.201Z,355
2017-04-29T08:15:36.096Z,340
2017-04-29T08:16:45.314Z,330
2017-04-29T08:17:54.200Z,345
2017-04-29T08:19:04.071Z,370
2017-04-29T08:20:13.120Z,370
2017-04-29T08:21:22.010Z,380
2017-04-29T08:22:31.226Z,410
2017-04-29T08:23:40.774Z,435
2017-04-29T08:24:50.313Z,445
2017-04-29T08:26:00.007Z,440
2017-04-29T08:27:09.566Z,450
2017-04-29T08:28:18.786Z,465
2017-04-29T08:29:27.999Z,455
2017-04-29T08:30:37.552Z,440
2017-04-29T08:31:46.820Z,420
2017-04-29T08:32:56.371Z,400
2017-04-29T08:34:05.593Z,380
2017-04-29T08:35:14.483Z,395
2017-04-29T08:36:23.698Z,375
2017-04-29T08:37:33.068Z,370
2017-04-29T08:38:41.960Z,380
2017-04-29T08:39:51.503Z,370
2017-04-29T08:41:00.724Z,345
2017-04-29T08:42:09.939Z,340
2017-04-29T08:43:19.959Z,295
2017-04-29T08:44:29.495Z,275
2017-04-29T08:45:38.383Z,285
2017-04-29T08:46:47.306Z,230
2017-04-29T08:47:56.851Z,245
2017-04-29T08:49:06.394Z,235
2017-04-29T08:50:15.290Z,255
2017-04-29T08:51:24.505Z,245
2017-04-29T08:52:33.395Z,240
2017-04-29T08:53:42.615Z,215
2017-04-29T08:54:51.807Z,220
2017-04-29T08:56:00.708Z,225
2017-04-29T08:57:09.598Z,235
2017-04-29T08:58:19.152Z,235
2017-04-29T08:59:28.372Z,240
2017-04-29T09:00:37.644Z,245
2017-04-29T09:01:46.873Z,250
2017-04-29T09:02:56.745Z,250
2017-04-29T09:04:05.967Z,250
2017-04-29T09:05:15.180Z,255
2017-04-29T09:06:24.822Z,270
2017-04-29T09:07:34.045Z,275
2017-04-29T09:08:43.263Z,285
2017-04-29T09:09:52.478Z,305
2017-04-29T09:11:01.693Z,320
2017-04-29T09:12:10.686Z,350
2017-04-29T09:13:19.904Z,410
2017-04-29T09:14:29.445Z,375
2017-04-29T09:15:38.335Z,370
2017-04-29T09:16:47.221Z,420
2017-04-29T09:17:56.746Z,490
2017-04-29T09:19:05.967Z,505
2017-04-29T09:20:15.186Z,455
2017-04-29T09:21:24.074Z,380
2017-04-29T09:22:32.964Z,300
2017-04-29T09:23:42.563Z,275
2017-04-29T09:24:51.480Z,280
2017-04-29T09:26:01.349Z,320
2017-04-29T09:27:10.569Z,375
2017-04-29T09:28:20.110Z,395
2017-04-29T09:29:29.486Z,390
2017-04-29T09:30:38.382Z,360
2017-04-29T09:31:47.601Z,360
2017-04-29T09:32:57.144Z,380
2017-04-29T09:34:07.018Z,410
2017-04-29T09:35:16.397Z,390
2017-04-29T09:36:25.939Z,365
2017-04-29T09:37:34.831Z,330
2017-04-29T09:38:44.373Z,355
2017-04-29T09:39:53.596Z,360
2017-04-29T09:41:03.063Z,350
2017-04-29T09:42:11.955Z,360
2017-04-29T09:43:21.510Z,345
2017-04-29T09:44:30.726Z,310
2017-04-29T09:45:40.267Z,265
2017-04-29T09:46:49.410Z,255
2017-04-29T09:47:59.279Z,270
2017-04-29T09:49:08.826Z,280
2017-04-29T09:50:17.725Z,285
2017-04-29T09:51:26.992Z,285
2017-04-29T09:52:36.583Z,305
2017-04-29T09:53:45.476Z,330
2017-04-29T09:54:54.375Z,355
2017-04-29T09:56:03.598Z,340
2017-04-29T09:57:12.808Z,355
2017-04-29T09:58:21.748Z,390
2017-04-29T09:59:31.291Z,470
2017-04-29T10:00:40.186Z,575
2017-04-29T10:01:49.080Z,670
2017-04-29T10:02:58.640Z,700
2017-04-29T10:04:08.492Z,700
2017-04-29T10:05:17.381Z,680
2017-04-29T10:06:26.272Z,680
2017-04-29T10:07:35.169Z,685
2017-04-29T10:08:44.387Z,665
2017-04-29T10:09:53.762Z,615
2017-04-29T10:11:03.002Z,570
2017-04-29T10:12:12.546Z,555
2017-04-29T10:13:21.763Z,560
2017-04-29T10:14:31.313Z,565
2017-04-29T10:15:40.527Z,555
2017-04-29T10:16:49.455Z,580
2017-04-29T10:17:58.677Z,615
2017-04-29T10:19:07.578Z,615
2017-04-29T10:20:16.468Z,630
2017-04-29T10:21:25.735Z,595
2017-04-29T10:22:34.951Z,550
2017-04-29T10:23:44.175Z,490
2017-04-29T10:24:53.391Z,465
2017-04-29T10:26:02.285Z,440
2017-04-29T10:27:11.335Z,415
2017-04-29T10:28:20.880Z,380
2017-04-29T10:29:30.103Z,340
2017-04-29T10:30:38.993Z,310
2017-04-29T10:31:47.890Z,300
2017-04-29T10:32:57.912Z,305
2017-04-29T10:34:06.806Z,300
2017-04-29T10:35:15.699Z,290
2017-04-29T10:36:24.920Z,300
2017-04-29T10:37:33.810Z,270
2017-04-29T10:38:43.080Z,235
2017-04-29T10:39:52.295Z,220
2017-04-29T10:41:01.837Z,215
2017-04-29T10:42:11.058Z,210
2017-04-29T10:43:20.278Z,205
2017-04-29T10:44:30.198Z,205
2017-04-29T10:45:39.421Z,195
2017-04-29T10:46:48.635Z,175
2017-04-29T10:47:57.893Z,170
2017-04-29T10:49:07.119Z,170
2017-04-29T10:50:16.434Z,175
2017-04-29T10:51:25.324Z,185
2017-04-29T10:52:34.539Z,195
2017-04-29T10:53:43.758Z,195
2017-04-29T10:54:53.295Z,195
2017-04-29T10:56:02.237Z,215
2017-04-29T10:57:11.130Z,255
2017-04-29T10:58:20.673Z,310
2017-04-29T10:59:30.551Z,395
2017-04-29T11:00:39.444Z,475
2017-04-29T11:01:49.065Z,530
2017-04-29T11:02:58.618Z,565
2017-04-29T11:04:07.512Z,580
2017-04-29T11:05:16.405Z,555
2017-04-29T11:06:25.945Z,485
2017-04-29T11:07:34.972Z,405
2017-04-29T11:08:44.188Z,360
2017-04-29T11:09:54.053Z,315
2017-04-29T11:11:02.982Z,280
2017-04-29T11:12:12.208Z,240
2017-04-29T11:13:21.584Z,215
2017-04-29T11:14:31.134Z,210
2017-04-29T11:15:40.022Z,220
2017-04-29T11:16:49.564Z,230
2017-04-29T11:17:59.123Z,235
2017-04-29T11:19:08.667Z,240
2017-04-29T11:20:17.878Z,245
2017-04-29T11:21:27.097Z,245
2017-04-29T11:22:36.314Z,245
2017-04-29T11:23:46.183Z,260
2017-04-29T11:24:56.536Z,300
2017-04-29T11:26:06.074Z,355
2017-04-29T11:27:15.285Z,410
2017-04-29T11:28:24.835Z,465
2017-04-29T11:29:34.057Z,475
2017-04-29T11:30:43.429Z,490
2017-04-29T11:31:52.975Z,535
2017-04-29T11:33:01.875Z,615
2017-04-29T11:34:11.417Z,685
2017-04-29T11:35:20.635Z,755
2017-04-29T11:36:30.157Z,815
2017-04-29T11:37:39.698Z,820
2017-04-29T11:38:48.916Z,825
2017-04-29T11:39:58.139Z,975
2017-04-29T11:41:07.029Z,1040
2017-04-29T11:42:15.974Z,830
2017-04-29T11:43:25.531Z,730
2017-04-29T11:44:35.076Z,745
2017-04-29T11:45:43.974Z,715
2017-04-29T11:46:53.195Z,560
2017-04-29T11:48:02.565Z,520
2017-04-29T11:49:11.785Z,525
2017-04-29T11:50:21.006Z,515
2017-04-29T11:51:29.899Z,480
2017-04-29T11:52:38.790Z,365
2017-04-29T11:53:49.141Z,275
2017-04-29T11:54:58.370Z,255
2017-04-29T11:56:07.263Z,245
2017-04-29T11:57:16.161Z,170
2017-04-29T11:58:26.041Z,145
2017-04-29T11:59:35.895Z,145
2017-04-29T12:00:45.438Z,165
2017-04-29T12:01:54.656Z,205
2017-04-29T12:03:03.875Z,260
2017-04-29T12:04:13.748Z,325
2017-04-29T12:05:23.011Z,390
2017-04-29T12:06:32.227Z,450
2017-04-29T12:07:41.126Z,510
2017-04-29T12:08:50.674Z,530
2017-04-29T12:09:59.895Z,515
2017-04-29T12:11:09.364Z,540
2017-04-29T12:12:18.253Z,570
2017-04-29T12:13:27.797Z,600
2017-04-29T12:14:37.017Z,625
2017-04-29T12:15:45.908Z,675
2017-04-29T12:16:55.282Z,780
2017-04-29T12:18:05.154Z,885
2017-04-29T12:19:14.379Z,1975
2017-04-29T12:20:23.600Z,1050
2017-04-29T12:21:32.818Z,1040
2017-04-29T12:22:41.762Z,1035
2017-04-29T12:23:51.643Z,1045
2017-04-29T12:25:01.192Z,1025
2017-04-29T12:26:10.411Z,950
2017-04-29T12:27:19.304Z,875
2017-04-29T12:28:29.549Z,985
2017-04-29T12:29:38.443Z,855
2017-04-29T12:30:47.350Z,820
2017-04-29T12:31:56.899Z,825
2017-04-29T12:33:06.771Z,860
2017-04-29T12:34:15.820Z,980
2017-04-29T12:35:24.717Z,810
2017-04-29T12:36:34.262Z,750
2017-04-29T12:37:43.160Z,740
2017-04-29T12:38:53.067Z,3435
2017-04-29T12:40:03.416Z,505
2017-04-29T12:41:12.346Z,425
2017-04-29T12:42:21.248Z,375
2017-04-29T12:43:30.798Z,355
2017-04-29T12:44:40.019Z,340
2017-04-29T12:45:49.385Z,320
2017-04-29T12:46:58.600Z,300
2017-04-29T12:48:07.489Z,275
2017-04-29T12:49:17.033Z,260
2017-04-29T12:50:26.581Z,260
2017-04-29T12:51:35.633Z,275
2017-04-29T12:52:45.193Z,295
2017-04-29T12:53:54.746Z,330
2017-04-29T12:55:04.331Z,370
2017-04-29T12:56:13.547Z,390
2017-04-29T12:57:22.443Z,395
2017-04-29T12:58:32.641Z,380
2017-04-29T12:59:41.534Z,390
2017-04-29T13:00:50.427Z,435
2017-04-29T13:01:59.641Z,460
2017-04-29T13:03:08.917Z,530
2017-04-29T13:04:18.823Z,670
2017-04-29T13:05:28.050Z,850
2017-04-29T13:06:37.299Z,770
2017-04-29T13:07:46.191Z,700
2017-04-29T13:08:56.047Z,605
2017-04-29T13:10:05.589Z,580
2017-04-29T13:11:14.486Z,630
2017-04-29T13:12:23.381Z,610
2017-04-29T13:13:32.927Z,600
2017-04-29T13:14:41.973Z,550
2017-04-29T13:15:50.894Z,425
2017-04-29T13:16:59.793Z,425
2017-04-29T13:18:09.663Z,450
2017-04-29T13:19:19.241Z,440
2017-04-29T13:20:28.611Z,450
2017-04-29T13:21:37.829Z,465
2017-04-29T13:22:46.721Z,470
2017-04-29T13:23:56.590Z,495
2017-04-29T13:25:05.812Z,650
2017-04-29T13:26:14.865Z,705
2017-04-29T13:27:24.085Z,4200
2017-04-29T13:28:33.311Z,4640
2017-04-29T13:29:42.205Z,3765
2017-04-29T13:30:51.100Z,3710
2017-04-29T13:32:00.488Z,4075
2017-04-29T13:33:09.713Z,4125
2017-04-29T13:34:19.594Z,4210
2017-04-29T13:35:28.827Z,3690
2017-04-29T13:36:37.726Z,3970
2017-04-29T13:37:47.279Z,4310
2017-04-29T13:38:56.832Z,4445
2017-04-29T13:40:06.063Z,4450
2017-04-29T13:41:14.967Z,4625
2017-04-29T13:42:23.870Z,4595
2017-04-29T13:43:33.031Z,4280
2017-04-29T13:44:42.593Z,1060
2017-04-29T13:45:51.500Z,2285
2017-04-29T13:47:00.737Z,1105
2017-04-29T13:48:09.644Z,800
2017-04-29T13:49:18.932Z,630
2017-04-29T13:50:27.842Z,615
2017-04-29T13:51:37.077Z,665
2017-04-29T13:52:45.984Z,695
2017-04-29T13:53:55.868Z,745
2017-04-29T13:55:05.676Z,585
2017-04-29T13:56:14.577Z,535
2017-04-29T13:57:23.486Z,520
2017-04-29T13:58:33.041Z,520
2017-04-29T13:59:42.263Z,500
2017-04-29T14:00:51.860Z,500
2017-04-29T14:02:01.087Z,505
2017-04-29T14:03:09.995Z,4130
2017-04-29T14:04:18.901Z,3950
2017-04-29T14:05:28.450Z,4195
2017-04-29T14:06:37.974Z,4215
2017-04-29T14:07:47.526Z,4230
2017-04-29T14:08:57.076Z,4220
2017-04-29T14:10:06.956Z,4220
2017-04-29T14:11:15.866Z,4315
2017-04-29T14:12:25.300Z,4065
2017-04-29T14:13:34.860Z,4030
2017-04-29T14:14:44.091Z,4075
2017-04-29T14:15:53.324Z,4125
2017-04-29T14:17:02.885Z,4035
2017-04-29T14:18:12.268Z,4370
2017-04-29T14:19:21.840Z,4385
2017-04-29T14:20:31.077Z,4085
2017-04-29T14:21:39.993Z,4300
2017-04-29T14:22:49.261Z,4090
2017-04-29T14:23:58.649Z,4125
2017-04-29T14:25:07.894Z,4215
2017-04-29T14:26:17.132Z,4090
2017-04-29T14:27:26.698Z,4090
2017-04-29T14:28:35.937Z,4440
2017-04-29T14:29:45.008Z,4360
2017-04-29T14:30:53.924Z,3870
2017-04-29T14:32:03.164Z,2035
2017-04-29T14:33:12.403Z,2920
2017-04-29T14:34:22.294Z,3370
2017-04-29T14:35:31.357Z,2620
2017-04-29T14:36:40.596Z,715
2017-04-29T14:37:49.836Z,715
2017-04-29T14:38:59.399Z,820
2017-04-29T14:40:08.965Z,1285
2017-04-29T14:41:18.353Z,1215
2017-04-29T14:42:28.240Z,1520
2017-04-29T14:43:38.127Z,740
2017-04-29T14:44:47.040Z,1915
2017-04-29T14:45:55.946Z,955
2017-04-29T14:47:05.000Z,520
2017-04-29T14:48:13.910Z,435
2017-04-29T14:49:23.475Z,425
2017-04-29T14:50:32.713Z,445
2017-04-29T14:51:41.616Z,465
2017-04-29T14:52:51.700Z,450
2017-04-29T14:54:01.262Z,420
2017-04-29T14:55:10.165Z,380
2017-04-29T14:56:19.716Z,345
2017-04-29T14:57:28.944Z,325
2017-04-29T14:58:37.997Z,315
2017-04-29T14:59:47.237Z,325
2017-04-29T15:00:56.155Z,350
2017-04-29T15:02:05.713Z,380
2017-04-29T15:03:15.276Z,405
2017-04-29T15:04:24.854Z,435
2017-04-29T15:05:34.405Z,435
2017-04-29T15:06:43.631Z,430
2017-04-29T15:07:52.858Z,420
2017-04-29T15:09:02.729Z,405
2017-04-29T15:10:12.203Z,380
2017-04-29T15:11:21.426Z,365
2017-04-29T15:12:30.973Z,370
2017-04-29T15:13:40.199Z,385
2017-04-29T15:14:49.749Z,395
2017-04-29T15:15:58.973Z,425
2017-04-29T15:17:08.202Z,1985
2017-04-29T15:18:17.135Z,2515
2017-04-29T15:19:26.366Z,3425
2017-04-29T15:20:35.266Z,3455
2017-04-29T15:21:44.316Z,3555
2017-04-29T15:22:53.875Z,3475
2017-04-29T15:24:03.431Z,3390
2017-04-29T15:25:12.665Z,3290
2017-04-29T15:26:21.895Z,3460
2017-04-29T15:27:31.805Z,3435
2017-04-29T15:28:40.710Z,2900
2017-04-29T15:29:49.619Z,3055
2017-04-29T15:30:59.184Z,3265
2017-04-29T15:32:08.423Z,3300
2017-04-29T15:33:18.141Z,3185
2017-04-29T15:34:27.703Z,3035
2017-04-29T15:35:36.940Z,3045
2017-04-29T15:36:45.854Z,3195
2017-04-29T15:37:55.415Z,3170
2017-04-29T15:39:05.773Z,3295
2017-04-29T15:40:15.005Z,3375
2017-04-29T15:41:23.920Z,3125
2017-04-29T15:42:33.154Z,3085
2017-04-29T15:43:42.392Z,3040
2017-04-29T15:44:51.784Z,2975
2017-04-29T15:46:01.674Z,2875
2017-04-29T15:47:10.906Z,2875
2017-04-29T15:48:20.471Z,2845
2017-04-29T15:49:29.710Z,3135
2017-04-29T15:50:39.050Z,3120
2017-04-29T15:51:48.613Z,2920
2017-04-29T15:52:58.182Z,2790
2017-04-29T15:54:07.750Z,2825
2017-04-29T15:55:16.990Z,2900
2017-04-29T15:56:25.958Z,2930
2017-04-29T15:57:35.218Z,2840
2017-04-29T15:58:44.455Z,1370
2017-04-29T15:59:53.694Z,1640
2017-04-29T16:01:02.604Z,780
2017-04-29T16:02:11.580Z,2735
2017-04-29T16:03:20.820Z,2635
2017-04-29T16:04:29.731Z,1690
2017-04-29T16:05:39.611Z,400
2017-04-29T16:06:48.525Z,555
2017-04-29T16:07:57.593Z,445
2017-04-29T16:09:06.506Z,805
2017-04-29T16:10:15.418Z,2435
2017-04-29T16:11:24.973Z,470
2017-04-29T16:12:34.210Z,1270
2017-04-29T16:13:43.594Z,490